Time;durP1;ratioP1;P1;durP2;ratioP2;P2;SDS_P1;SDS_P2;PMS_P1;PMS_P2;Temp;Humidity;BMP_temperature;BMP_pressure;BME280_temperature;BME280_humidity;BME280_pressure;Samples;Min_cycle;Max_cycle;Signal;HPM_P1;HPM_P2
2023/07/31 00:02:52;;;;;;;;;;;16.30;99.90;;;;;;4857009;29;20033;-95
2023/07/31 00:05:52;;;;;;;3.63;2.30;;;16.30;99.90;;;;;;4902030;29;20351;-92
2023/07/31 00:08:43;;;;;;;6.32;2.53;;;16.30;99.90;;;;;;4870626;29;20032;-93
2023/07/31 00:11:27;;;;;;;;;;;;;;;;;;;;;
2023/07/31 00:13:54;;;;;;;3.03;1.80;;;16.30;99.90;;;;;;4855867;29;20033;-95
2023/07/31 00:23:58;;;;;;;3.92;2.67;;;16.30;99.90;;;;;;4890881;23;20178;-94
2023/07/31 00:26:23;;;;;;;2.92;2.13;;;16.30;99.90;;;;;;4818471;29;20067;-94
2023/07/31 00:28:49;;;;;;;3.55;2.10;;;16.30;99.90;;;;;;4819027;29;20102;-93
2023/07/31 00:31:15;;;;;;;5.88;2.15;;;16.30;99.90;;;;;;4833621;29;20041;-92
2023/07/31 00:33:40;;;;;;;5.07;2.13;;;16.30;99.90;;;;;;4864959;29;20034;-91
2023/07/31 00:36:06;;;;;;;6.20;2.78;;;16.30;99.90;;;;;;4864728;29;20044;-90
2023/07/31 00:38:32;;;;;;;6.00;3.38;;;16.30;99.90;;;;;;4833207;29;20382;-93
2023/07/31 00:40:57;;;;;;;10.73;4.53;;;16.30;99.90;;;;;;4865950;29;20042;-91
2023/07/31 00:43:24;;;;;;;15.80;5.82;;;16.30;99.90;;;;;;4864139;29;20030;-92
2023/07/31 00:45:50;;;;;;;18.38;6.60;;;16.30;99.90;;;;;;4863516;29;20028;-92
2023/07/31 00:48:16;;;;;;;21.27;8.32;;;16.40;99.90;;;;;;4832811;29;20030;-92
2023/07/31 00:50:42;;;;;;;26.70;9.27;;;16.40;99.90;;;;;;4832576;29;20094;-93
2023/07/31 00:53:07;;;;;;;33.40;10.05;;;16.40;99.90;;;;;;4832629;29;20033;-93
2023/07/31 00:55:33;;;;;;;36.78;12.88;;;16.40;99.90;;;;;;4863649;29;20034;-92
2023/07/31 00:58:01;;;;;;;54.97;13.30;;;16.50;99.90;;;;;;4863676;29;20057;-91
2023/07/31 01:00:29;;;;;;;52.08;15.07;;;16.50;99.90;;;;;;4862642;29;20064;-92
2023/07/31 01:02:55;;;;;;;46.45;15.45;;;16.60;99.90;;;;;;4863217;29;20036;-91
2023/07/31 01:05:29;;;;;;;55.53;16.83;;;16.60;99.90;;;;;;4847763;29;20037;-91
2023/07/31 01:08:12;;;;;;;50.35;15.77;;;16.70;99.90;;;;;;4864710;29;20098;-91
2023/07/31 01:10:48;;;;;;;47.03;15.13;;;16.70;99.90;;;;;;4862670;29;20058;-91
2023/07/31 01:13:19;;;;;;;43.08;14.20;;;16.70;99.90;;;;;;4862865;29;20033;-93
2023/07/31 01:15:44;;;;;;;47.53;15.30;;;16.70;99.90;;;;;;4864506;29;20033;-91
2023/07/31 01:18:10;;;;;;;43.08;14.20;;;16.80;99.90;;;;;;4862939;29;20057;-91
2023/07/31 01:20:39;;;;;;;48.50;14.32;;;16.80;99.90;;;;;;4861843;29;20021;-91
2023/07/31 01:23:32;;;;;;;46.00;14.07;;;16.80;99.90;;;;;;4864082;29;20053;-92
2023/07/31 01:26:22;;;;;;;47.67;14.40;;;16.80;99.90;;;;;;4863290;29;20033;-92
2023/07/31 01:29:07;;;;;;;42.23;13.50;;;16.80;99.90;;;;;;4863793;29;20386;-94
2023/07/31 01:40:36;;;;;;;48.65;13.35;;;16.80;99.90;;;;;;4883465;29;20027;-95
2023/07/31 01:57:18;;;;;;;42.83;13.52;;;16.70;99.90;;;;;;4790863;29;20049;-94
2023/07/31 02:03:12;;;;;;;;;;;16.80;99.90;;;;;;4790855;29;20112;-92
2023/07/31 02:05:56;;;;;;;33.03;11.40;;;16.80;99.90;;;;;;4789085;30;19910;-92
2023/07/31 02:08:40;;;;;;;39.63;12.25;;;16.70;99.90;;;;;;4788993;30;20031;-93
2023/07/31 02:11:29;;;;;;;37.15;12.40;;;16.70;99.90;;;;;;4774199;30;20070;-93
2023/07/31 02:13:55;;;;;;;36.58;11.85;;;16.70;99.90;;;;;;4773967;30;20108;-93
2023/07/31 02:16:22;;;;;;;30.45;11.15;;;16.70;99.90;;;;;;4788749;30;20104;-92
2023/07/31 02:19:32;;;;;;;30.65;10.73;;;16.70;99.90;;;;;;4789252;30;20035;-93
2023/07/31 02:38:30;;;;;;;30.67;10.35;;;16.70;99.90;;;;;;4825262;29;20105;-93
2023/07/31 02:41:02;;;;;;;37.05;10.63;;;16.70;99.90;;;;;;4834552;29;20044;-92
2023/07/31 02:44:14;;;;;;;35.30;10.98;;;16.70;99.90;;;;;;4834492;29;20120;-93
2023/07/31 02:46:46;;;;;;;26.50;10.13;;;16.70;99.90;;;;;;4865044;29;20093;-92
2023/07/31 02:49:50;;;;;;;34.78;10.88;;;16.70;99.90;;;;;;4834459;29;20479;-93
2023/07/31 02:59:10;;;;;;;35.47;11.15;;;16.80;99.90;;;;;;4721158;30;20137;-95
2023/07/31 03:05:03;;;;;;;36.42;11.77;;;16.80;99.90;;;;;;4719849;30;20044;-94
2023/07/31 03:07:30;;;;;;;35.45;10.40;;;16.80;99.90;;;;;;4688514;30;20508;-92
2023/07/31 03:10:28;;;;;;;32.10;11.55;;;16.80;99.90;;;;;;4746494;30;20054;-92
2023/07/31 03:12:54;;;;;;;35.80;10.05;;;16.80;99.90;;;;;;4769915;30;20036;-91
2023/07/31 03:15:23;;;;;;;29.67;10.88;;;16.70;99.90;;;;;;4755354;30;20515;-92
2023/07/31 03:21:39;;;;;;;27.67;10.02;;;16.70;99.90;;;;;;4734886;30;20068;-96
2023/07/31 03:24:14;;;;;;;36.15;11.60;;;16.70;99.90;;;;;;4734732;30;20112;-93
2023/07/31 03:26:58;;;;;;;36.95;11.10;;;16.70;99.90;;;;;;4761592;30;20043;-92
2023/07/31 03:32:49;;;;;;;31.02;10.25;;;16.70;99.90;;;;;;4808593;29;20071;-94
2023/07/31 03:39:48;;;;;;;25.77;8.40;;;16.70;99.90;;;;;;4814968;29;20048;-93
2023/07/31 03:42:43;;;;;;;31.88;9.10;;;16.60;99.90;;;;;;4789397;29;20142;-93
2023/07/31 03:45:09;;;;;;;30.83;10.15;;;16.60;99.90;;;;;;4793059;29;20039;-93
2023/07/31 03:48:15;;;;;;;23.40;8.63;;;16.60;99.90;;;;;;4808971;29;20027;-92
2023/07/31 04:07:21;;;;;;;27.55;8.75;;;16.60;99.90;;;;;;4773857;30;20556;-95
2023/07/31 04:19:54;;;;;;;28.83;8.57;;;16.60;99.90;;;;;;4776135;30;20553;-95
2023/07/31 04:25:41;;;;;;;;;;;16.50;99.90;;;;;;4773427;30;20071;-92
2023/07/31 04:28:07;;;;;;;26.88;8.32;;;16.50;99.90;;;;;;4773138;30;19921;-96
2023/07/31 04:31:28;;;;;;;28.65;9.00;;;16.50;99.90;;;;;;4811615;29;20045;-93
2023/07/31 04:37:16;;;;;;;26.33;8.32;;;16.50;99.90;;;;;;4866311;29;20111;-93
2023/07/31 04:39:51;;;;;;;28.58;9.73;;;16.50;99.90;;;;;;4823931;29;20045;-92
2023/07/31 04:46:05;;;;;;;26.00;8.90;;;16.60;99.90;;;;;;4884330;29;20168;-92
2023/07/31 04:49:11;;;;;;;22.23;8.80;;;16.60;99.90;;;;;;4851630;29;20033;-94
2023/07/31 04:55:00;;;;;;;26.73;8.93;;;16.60;99.90;;;;;;4883886;29;20120;-92
2023/07/31 05:17:06;;;;;;;21.30;8.25;;;16.50;99.90;;;;;;4813204;29;20435;-94
2023/07/31 05:19:56;;;;;;;23.02;7.70;;;16.50;99.90;;;;;;4796246;29;20161;-96
2023/07/31 05:22:24;;;;;;;27.67;8.38;;;16.60;99.90;;;;;;4795494;29;20047;-94
2023/07/31 05:24:59;;;;;;;28.50;8.25;;;16.50;99.90;;;;;;4793247;29;20043;-94
2023/07/31 05:34:13;;;;;;;22.20;8.23;;;16.60;99.90;;;;;;4722037;30;20539;-96
2023/07/31 05:40:50;;;;;;;18.83;7.43;;;16.60;99.90;;;;;;4717937;30;20060;-94
2023/07/31 05:44:09;;;;;;;28.45;8.93;;;16.60;99.90;;;;;;4706945;30;20041;-93
2023/07/31 05:54:05;;;;;;;20.95;8.30;;;16.60;99.90;;;;;;4737982;30;20600;-95
2023/07/31 05:56:49;;;;;;;26.13;8.57;;;16.60;99.90;;;;;;4739369;30;20152;-95
2023/07/31 06:02:47;;;;;;;22.75;8.60;;;16.60;99.90;;;;;;4737819;30;20035;-95
2023/07/31 06:09:00;;;;;;;26.58;9.10;;;16.60;99.90;;;;;;4808125;29;20072;-95
2023/07/31 06:14:58;;;;;;;23.65;8.52;;;16.60;99.90;;;;;;4882134;29;20075;-93
2023/07/31 06:20:53;;;;;;;23.38;8.20;;;16.70;99.90;;;;;;4882247;29;20085;-94
2023/07/31 06:31:08;;;;;;;19.25;7.10;;;16.70;99.90;;;;;;4847927;29;20025;-96
2023/07/31 06:36:56;;;;;;;;;;;16.70;99.90;;;;;;4848631;29;20147;-94
2023/07/31 06:55:58;;;;;;;;;;;16.80;99.90;;;;;;4843510;29;19923;-92
2023/07/31 07:01:28;;;;;;;;;;;16.90;99.90;;;;;;4869260;29;19914;-95
2023/07/31 07:07:02;;;;;;;;;;;16.90;99.90;;;;;;4881833;29;19914;-95
2023/07/31 07:12:50;;;;;;;;;;;16.90;99.90;;;;;;4883126;29;19915;-95
2023/07/31 07:18:39;;;;;;;;;;;17.00;99.90;;;;;;4883205;29;20469;-94
2023/07/31 07:21:15;;;;;;;;;;;17.10;99.90;;;;;;4869707;29;19930;-94
2023/07/31 07:24:22;;;;;;;;;;;;;;;;;;;;;
2023/07/31 07:37:05;;;;;;;;;;;;;;;;;;;;;
2023/07/31 08:04:12;;;;;;;;;;;17.20;99.90;;;;;;4739224;30;19917;-93
2023/07/31 08:09:44;;;;;;;;;;;17.20;99.90;;;;;;4861036;23;19986;-91
2023/07/31 08:12:12;;;;;;;;;;;17.30;99.90;;;;;;4852398;29;19912;-93
2023/07/31 08:14:38;;;;;;;;;;;17.20;99.90;;;;;;4867583;29;19912;-94
2023/07/31 08:17:04;;;;;;;;;;;17.20;99.90;;;;;;4883484;29;19919;-94
2023/07/31 08:19:32;;;;;;;;;;;17.30;99.90;;;;;;4866790;29;20383;-95
2023/07/31 08:22:06;;;;;;;;;;;17.30;99.90;;;;;;4867484;29;19962;-94
2023/07/31 08:24:40;;;;;;;;;;;17.30;99.90;;;;;;4867806;29;19915;-94
2023/07/31 08:27:06;;;;;;;;;;;17.30;99.90;;;;;;4863672;29;20043;-93
2023/07/31 08:29:31;;;;;;;;;;;17.30;99.90;;;;;;4900603;29;19900;-94
2023/07/31 08:34:57;;;;;;;;;;;;;;;;;;;;;
2023/07/31 08:37:31;;;;;;;;;;;17.40;99.90;;;;;;4867754;29;19926;-96
2023/07/31 08:40:21;;;;;;;;;;;17.30;99.90;;;;;;4882342;29;19958;-94
2023/07/31 08:42:48;;;;;;;;;;;17.40;99.90;;;;;;4866675;29;19918;-91
2023/07/31 08:45:15;;;;;;;;;;;17.50;99.90;;;;;;4882027;29;19918;-94
2023/07/31 08:47:53;;;;;;;;;;;17.40;99.90;;;;;;4882023;29;19907;-93
2023/07/31 08:50:31;;;;;;;;;;;;;;;;;;;;;
2023/07/31 08:53:02;;;;;;;;;;;17.40;99.90;;;;;;4868163;29;19918;-92
2023/07/31 08:55:48;;;;;;;;;;;;;;;;;;;;;
2023/07/31 08:58:17;;;;;;;;;;;17.40;99.90;;;;;;4883216;29;19918;-94
2023/07/31 09:00:44;;;;;;;;;;;17.50;99.90;;;;;;4881974;29;19944;-94
2023/07/31 09:03:27;;;;;;;;;;;17.50;99.90;;;;;;4885751;29;20006;-95
2023/07/31 09:05:59;;;;;;;;;;;17.50;99.90;;;;;;4888276;29;19911;-95
2023/07/31 09:08:26;;;;;;;;;;;17.50;99.90;;;;;;4889930;29;19918;-95
2023/07/31 09:10:58;;;;;;;;;;;17.50;99.90;;;;;;4877598;29;19987;-96
2023/07/31 09:13:27;;;;;;;;;;;17.50;99.90;;;;;;4868247;29;19912;-96
2023/07/31 09:15:57;;;;;;;;;;;17.50;99.90;;;;;;4866280;29;19964;-95
2023/07/31 09:18:23;;;;;;;;;;;17.50;99.90;;;;;;4868625;29;19963;-93
2023/07/31 09:21:04;;;;;;;;;;;17.50;99.90;;;;;;4867201;29;19915;-92
2023/07/31 09:23:41;;;;;;;;;;;17.50;99.90;;;;;;4870312;29;19909;-94
2023/07/31 10:11:55;;;;;;;;;;;;;;;;;;;;;
2023/07/31 10:14:56;;;;;;;;;;;17.70;99.90;;;;;;4881241;29;19922;-95
2023/07/31 10:17:43;;;;;;;;;;;;;;;;;;;;;
2023/07/31 10:20:21;;;;;;;;;;;17.70;99.90;;;;;;4881517;29;19908;-93
2023/07/31 10:22:49;;;;;;;;;;;17.70;99.90;;;;;;4864655;29;19911;-93
2023/07/31 10:25:18;;;;;;;;;;;17.80;99.90;;;;;;4849196;29;19911;-94
2023/07/31 10:27:57;;;;;;;;;;;;;;;;;;;;;
2023/07/31 10:30:32;;;;;;;;;;;17.80;99.90;;;;;;4880645;29;19907;-95
2023/07/31 10:33:16;;;;;;;;;;;;;;;;;;;;;
2023/07/31 10:35:44;;;;;;;;;;;17.80;99.90;;;;;;4865533;29;19920;-94
2023/07/31 10:38:40;;;;;;;;;;;;;;;;;;;;;
2023/07/31 10:41:12;;;;;;;;;;;17.90;99.90;;;;;;4853962;29;19908;-96
2023/07/31 10:43:43;;;;;;;;;;;17.90;99.90;;;;;;4861236;29;20391;-94
2023/07/31 10:46:12;;;;;;;;;;;17.90;99.90;;;;;;4861717;29;20455;-94
2023/07/31 10:48:41;;;;;;;;;;;17.90;99.90;;;;;;4861130;29;19952;-93
2023/07/31 10:51:23;;;;;;;;;;;17.90;99.90;;;;;;4846141;29;19960;-94
2023/07/31 10:53:59;;;;;;;;;;;;;;;;;;;;;
2023/07/31 10:56:25;;;;;;;;;;;18.00;99.90;;;;;;4862845;29;19915;-94
2023/07/31 10:59:22;;;;;;;;;;;;;;;;;;;;;
2023/07/31 11:02:02;;;;;;;;;;;;;;;;;;;;;
2023/07/31 11:04:38;;;;;;;;;;;;;;;;;;;;;
2023/07/31 11:07:12;;;;;;;;;;;18.10;99.90;;;;;;4881489;29;19924;-95
2023/07/31 11:09:45;;;;;;;;;;;18.10;99.90;;;;;;4845988;29;20392;-93
2023/07/31 11:12:11;;;;;;;;;;;18.20;99.90;;;;;;4861139;29;19912;-93
2023/07/31 11:14:59;;;;;;;;;;;18.20;99.90;;;;;;4861031;29;19926;-94
2023/07/31 11:17:38;;;;;;;;;;;18.20;99.90;;;;;;4848997;29;19914;-93
2023/07/31 11:20:04;;;;;;;;;;;18.20;99.90;;;;;;4831820;29;19959;-93
2023/07/31 11:22:38;;;;;;;;;;;18.20;99.90;;;;;;4861231;29;20010;-94
2023/07/31 11:25:14;;;;;;;;;;;18.30;99.90;;;;;;4861448;29;19907;-94
2023/07/31 11:27:57;;;;;;;;;;;18.30;99.90;;;;;;4861696;29;19967;-93
2023/07/31 11:30:38;;;;;;;;;;;18.30;99.90;;;;;;4849026;29;19914;-94
2023/07/31 11:33:09;;;;;;;;;;;18.30;99.90;;;;;;4851680;29;19912;-95
2023/07/31 11:35:53;;;;;;;;;;;18.20;99.90;;;;;;4847352;29;19931;-95
2023/07/31 11:38:30;;;;;;;;;;;18.30;99.90;;;;;;4883639;29;19903;-94
2023/07/31 11:41:10;;;;;;;;;;;18.30;99.90;;;;;;4850885;29;19907;-94
2023/07/31 11:43:57;;;;;;;;;;;18.30;99.90;;;;;;4860741;29;19936;-94
2023/07/31 11:46:49;;;;;;;;;;;18.30;99.90;;;;;;4860340;29;20353;-95
2023/07/31 11:49:54;;;;;;;;;;;;;;;;;;;;;
2023/07/31 11:52:33;;;;;;;;;;;;;;;;;;;;;
2023/07/31 11:55:21;;;;;;;;;;;;;;;;;;;;;
2023/07/31 11:58:09;;;;;;;;;;;18.40;99.90;;;;;;4861319;29;20268;-95
2023/07/31 12:03:49;;;;;;;;;;;;;;;;;;;;;
2023/07/31 12:06:27;;;;;;;;;;;;;;;;;;;;;
2023/07/31 12:09:18;;;;;;;;;;;18.50;99.90;;;;;;4864441;29;20292;-94
2023/07/31 12:11:46;;;;;;;;;;;18.60;99.90;;;;;;4848349;29;19964;-95
2023/07/31 12:14:47;;;;;;;;;;;18.60;99.90;;;;;;4848413;29;19920;-94
2023/07/31 12:20:38;;;;;;;;;;;;;;;;;;;;;
2023/07/31 12:23:27;;;;;;;;;;;18.60;99.90;;;;;;4851154;29;19908;-96
2023/07/31 12:26:41;;;;;;;;;;;;;;;;;;;;;
2023/07/31 12:29:35;;;;;;;;;;;18.70;99.90;;;;;;4790290;30;20401;-96
2023/07/31 12:32:13;;;;;;;;;;;18.60;99.90;;;;;;4799169;29;20330;-96
2023/07/31 12:37:59;;;;;;;;;;;18.60;99.90;;;;;;4864580;29;19908;-96
2023/07/31 12:40:34;;;;;;;;;;;18.60;99.90;;;;;;4849737;29;20296;-94
2023/07/31 12:43:06;;;;;;;;;;;18.60;99.90;;;;;;4863383;29;20383;-96
2023/07/31 12:45:34;;;;;;;;;;;18.60;99.90;;;;;;4831918;29;19964;-95
2023/07/31 12:50:53;;;;;;;;;;;18.50;99.90;;;;;;4865174;29;19963;-96
2023/07/31 12:53:29;;;;;;;;;;;;;;;;;;;;;
2023/07/31 12:56:12;;;;;;;;;;;;;;;;;;;;;
2023/07/31 12:58:38;;;;;;;;;;;18.60;99.90;;;;;;4879480;29;19951;-96
2023/07/31 13:01:06;;;;;;;;;;;18.60;99.90;;;;;;4859694;29;19909;-94
2023/07/31 13:03:32;;;;;;;;;;;18.60;99.90;;;;;;4875078;29;19939;-93
2023/07/31 13:06:00;;;;;;;;;;;18.60;99.90;;;;;;4864192;29;19908;-95
2023/07/31 13:08:31;;;;;;;;;;;18.50;99.90;;;;;;4862501;29;19927;-95
2023/07/31 13:10:59;;;;;;;;;;;18.60;99.90;;;;;;4863133;29;19919;-93
2023/07/31 13:13:53;;;;;;;;;;;18.60;99.90;;;;;;4862908;29;20002;-94
2023/07/31 13:16:36;;;;;;;;;;;;;;;;;;;;;
2023/07/31 13:19:11;;;;;;;;;;;18.70;99.90;;;;;;4863434;29;19908;-95
2023/07/31 13:21:40;;;;;;;;;;;18.70;99.90;;;;;;4862797;29;19912;-93
2023/07/31 13:27:19;;;;;;;;;;;;;;;;;;;;;
2023/07/31 13:29:50;;;;;;;;;;;18.70;99.90;;;;;;4863689;29;19914;-94
2023/07/31 13:32:23;;;;;;;;;;;18.70;99.90;;;;;;4862792;29;19914;-93
2023/07/31 13:37:48;;;;;;;;;;;18.80;99.90;;;;;;4802002;29;19913;-95
2023/07/31 13:40:13;;;;;;;;;;;18.80;99.90;;;;;;4807601;29;19917;-95
2023/07/31 13:42:49;;;;;;;;;;;;;;;;;;;;;
2023/07/31 13:46:10;;;;;;;;;;;;;;;;;;;;;
2023/07/31 13:49:01;;;;;;;;;;;;;;;;;;;;;
2023/07/31 13:51:30;;;;;;;;;;;18.90;99.90;;;;;;4790608;30;19909;-95
2023/07/31 13:57:28;;;;;;;;;;;18.90;99.90;;;;;;4747099;29;19924;-95
2023/07/31 14:16:22;;;;;;;;;;;;;;;;;;;;;
2023/07/31 14:25:29;;;;;;;;;;;;;;;;;;;;;
2023/07/31 14:28:42;;;;;;;;;;;18.80;99.90;;;;;;4753245;30;19916;-96
2023/07/31 14:31:23;;;;;;;;;;;18.80;99.90;;;;;;4737538;30;20277;-95
2023/07/31 14:34:18;;;;;;;;;;;18.90;99.90;;;;;;4747681;29;20342;-95
2023/07/31 14:36:46;;;;;;;;;;;18.90;99.90;;;;;;4864295;29;19994;-95
2023/07/31 14:39:11;;;;;;;;;;;18.90;99.90;;;;;;4865725;29;19942;-94
2023/07/31 14:41:56;;;;;;;;;;;;;;;;;;;;;
2023/07/31 14:47:36;;;;;;;;;;;18.90;99.90;;;;;;4861271;29;19908;-95
2023/07/31 14:50:04;;;;;;;;;;;18.90;99.90;;;;;;4847737;29;19928;-94
2023/07/31 14:52:36;;;;;;;;;;;18.90;99.90;;;;;;4831548;29;20329;-95
2023/07/31 14:55:35;;;;;;;;;;;;;;;;;;;;;
2023/07/31 14:58:33;;;;;;;;;;;18.80;99.90;;;;;;4787962;30;19909;-95
2023/07/31 15:01:28;;;;;;;;;;;;;;;;;;;;;
2023/07/31 15:07:15;;;;;;;;;;;18.80;99.90;;;;;;4848728;29;19924;-96
2023/07/31 15:15:56;;;;;;;;;;;18.80;99.90;;;;;;4861271;29;19912;-96
2023/07/31 15:18:30;;;;;;;;;;;18.80;99.90;;;;;;4846023;29;19939;-95
2023/07/31 15:21:24;;;;;;;;;;;;;;;;;;;;;
2023/07/31 15:24:27;;;;;;;;;;;18.80;99.90;;;;;;4865562;29;19908;-96
2023/07/31 15:30:11;;;;;;;;;;;;;;;;;;;;;
2023/07/31 15:36:13;;;;;;;;;;;18.80;99.90;;;;;;4853499;29;19923;-94
2023/07/31 15:39:04;;;;;;;;;;;18.80;99.90;;;;;;4861601;29;19983;-95
2023/07/31 15:44:51;;;;;;;;;;;;;;;;;;;;;
2023/07/31 15:47:40;;;;;;;;;;;;;;;;;;;;;
2023/07/31 15:50:43;;;;;;;;;;;18.80;99.90;;;;;;4838371;29;19912;-96
2023/07/31 15:53:38;;;;;;;;;;;18.70;99.90;;;;;;4866664;29;19912;-95
2023/07/31 15:56:27;;;;;;;;;;;18.80;99.90;;;;;;4852715;29;19912;-94
2023/07/31 16:14:47;;;;;;;;;;;18.80;99.90;;;;;;4871542;29;19920;-94
2023/07/31 16:17:36;;;;;;;;;;;18.80;99.90;;;;;;4853575;29;19897;-94
2023/07/31 16:20:24;;;;;;;;;;;18.70;99.90;;;;;;4868981;29;19904;-93
2023/07/31 16:22:50;;;;;;;;;;;18.70;99.90;;;;;;4853148;29;19903;-92
2023/07/31 16:25:23;;;;;;;;;;;18.70;99.90;;;;;;4868407;29;20322;-95
2023/07/31 16:28:00;;;;;;;;;;;18.70;99.90;;;;;;4868210;29;19947;-94
2023/07/31 16:30:31;;;;;;;;;;;18.70;99.90;;;;;;4868231;29;19912;-92
2023/07/31 16:32:59;;;;;;;;;;;18.70;99.90;;;;;;4866885;29;19923;-94
2023/07/31 16:35:25;;;;;;;;;;;18.70;99.90;;;;;;4865615;29;19912;-94
2023/07/31 16:37:53;;;;;;;;;;;18.60;99.90;;;;;;4851425;29;19913;-93
2023/07/31 16:40:28;;;;;;;;;;;18.60;99.90;;;;;;4829878;29;20016;-92
2023/07/31 16:42:59;;;;;;;;;;;18.60;99.90;;;;;;4845609;29;19957;-93
2023/07/31 16:45:27;;;;;;;;;;;18.60;99.90;;;;;;4845663;29;19943;-94
2023/07/31 16:47:55;;;;;;;;;;;18.60;99.90;;;;;;4845901;29;19909;-94
2023/07/31 16:50:33;;;;;;;;;;;;;;;;;;;;;
2023/07/31 16:53:23;;;;;;;;;;;18.60;99.90;;;;;;4846179;29;19908;-93
2023/07/31 16:55:50;;;;;;;;;;;18.50;99.90;;;;;;4834089;29;19912;-91
2023/07/31 16:58:16;;;;;;;;;;;18.50;99.90;;;;;;4844915;29;19912;-90
2023/07/31 17:00:42;;;;;;;;;;;18.50;99.90;;;;;;4829908;29;19915;-91
2023/07/31 17:03:10;;;;;;;;;;;18.40;99.90;;;;;;4844858;29;19908;-90
2023/07/31 17:05:42;;;;;;;;;;;18.40;99.90;;;;;;4846364;29;19908;-90
2023/07/31 17:08:14;;;;;;;;;;;18.40;99.90;;;;;;4829611;29;19908;-91
2023/07/31 17:10:48;;;;;;;;;;;18.30;99.90;;;;;;4858954;29;19972;-91
2023/07/31 17:13:16;;;;;;;;;;;18.30;99.90;;;;;;4848503;29;19912;-91
2023/07/31 17:16:00;;;;;;;;;;;;;;;;;;;;;
2023/07/31 17:18:27;;;;;;;;;;;18.40;99.90;;;;;;4862721;29;19992;-91
2023/07/31 17:21:00;;;;;;;;;;;18.40;99.90;;;;;;4847577;29;19944;-92
2023/07/31 17:23:33;;;;;;;;;;;18.30;99.90;;;;;;4847349;29;19995;-94
2023/07/31 17:26:05;;;;;;;;;;;18.30;99.90;;;;;;4847591;29;20376;-94
2023/07/31 17:28:40;;;;;;;;;;;18.30;99.90;;;;;;4833146;29;19941;-94
2023/07/31 17:31:23;;;;;;;;;;;18.30;99.90;;;;;;4847312;29;19909;-93
2023/07/31 17:33:53;;;;;;;;;;;18.30;99.90;;;;;;4847295;29;19913;-92
2023/07/31 17:36:28;;;;;;;;;;;18.30;99.90;;;;;;4833458;29;19920;-96
2023/07/31 17:39:01;;;;;;;;;;;18.30;99.90;;;;;;4848022;29;19912;-94
2023/07/31 17:41:42;;;;;;;;;;;;;;;;;;;;;
2023/07/31 17:44:28;;;;;;;;;;;18.30;99.90;;;;;;4826105;29;19909;-96
2023/07/31 17:49:58;;;;;;;;;;;18.30;99.90;;;;;;4809234;29;20015;-94
2023/07/31 17:56:05;;;;;;;;;;;18.30;99.90;;;;;;4807119;29;19924;-93
2023/07/31 18:01:52;;;;;;;;;;;18.20;99.90;;;;;;4806932;29;19939;-92
2023/07/31 18:23:15;;;;;;;;;;;18.10;99.90;;;;;;4736835;30;19984;-96
2023/07/31 18:54:04;;;;;;;;;;;18.20;99.90;;;;;;4704980;30;19962;-96
2023/07/31 18:59:59;;;;;;;;;;;18.20;99.90;;;;;;4700597;30;19917;-93
2023/07/31 19:06:00;;;;;;;;;;;18.30;99.90;;;;;;4717182;30;19918;-96
2023/07/31 19:09:05;;;;;;;;;;;18.30;99.90;;;;;;4686647;30;19911;-96
2023/07/31 19:11:33;;;;;;;;;;;18.30;99.90;;;;;;4713851;30;19929;-95
2023/07/31 19:14:12;;;;;;;;;;;18.20;99.90;;;;;;4753565;30;19914;-95
2023/07/31 19:19:46;;;;;;;;;;;18.30;99.90;;;;;;4756741;30;19917;-93
2023/07/31 19:22:12;;;;;;;;;;;18.30;99.90;;;;;;4808187;29;20378;-94
2023/07/31 19:24:42;;;;;;;;;;;18.30;99.90;;;;;;4793973;29;19909;-94
2023/07/31 19:27:13;;;;;;;;;;;18.20;99.90;;;;;;4794191;29;19948;-93
2023/07/31 19:29:43;;;;;;;;;;;18.30;99.90;;;;;;4794540;29;19913;-94
2023/07/31 19:32:14;;;;;;;;;;;18.30;99.90;;;;;;4796586;29;20442;-95
2023/07/31 19:34:50;;;;;;;;;;;18.30;99.90;;;;;;4865459;29;20001;-93
2023/07/31 19:37:20;;;;;;;;;;;18.30;99.90;;;;;;4849410;29;19913;-95
2023/07/31 19:39:53;;;;;;;;;;;18.30;99.90;;;;;;4852785;29;20418;-94
2023/07/31 19:42:38;;;;;;;;;;;18.30;99.90;;;;;;4852217;29;20384;-95
2023/07/31 19:48:10;;;;;;;;;;;18.30;99.90;;;;;;4830174;29;19917;-96
2023/07/31 19:50:43;;;;;;;;;;;18.30;99.90;;;;;;4860347;29;19914;-95
2023/07/31 19:53:09;;;;;;;;;;;18.30;99.90;;;;;;4853853;29;19908;-96
2023/07/31 19:55:53;;;;;;;;;;;18.30;99.90;;;;;;4869698;29;19919;-95
2023/07/31 19:58:18;;;;;;;;;;;18.20;99.90;;;;;;4839510;29;20254;-93
2023/07/31 20:00:44;;;;;;;;;;;18.20;99.90;;;;;;4865300;29;20040;-93
2023/07/31 20:03:12;;;;;;;;;;;18.20;99.90;;;;;;4849310;29;19908;-95
2023/07/31 20:05:43;;;;;;;;;;;18.20;99.90;;;;;;4864470;29;20408;-93
2023/07/31 20:08:16;;;;;;;;;;;18.20;99.90;;;;;;4864662;29;20436;-95
2023/07/31 20:10:42;;;;;;;;;;;18.20;99.90;;;;;;4848504;29;19971;-95
2023/07/31 20:13:20;;;;;;;;;;;;;;;;;;;;;
2023/07/31 20:15:46;;;;;;;;;;;18.20;99.90;;;;;;4850784;29;19942;-95
2023/07/31 20:18:45;;;;;;;;;;;;;;;;;;;;;
2023/07/31 20:21:13;;;;;;;;;;;18.10;99.90;;;;;;4868465;29;19983;-96
2023/07/31 20:23:44;;;;;;;;;;;18.10;99.90;;;;;;4862525;29;19958;-95
2023/07/31 20:26:19;;;;;;;;;;;18.10;99.90;;;;;;4869162;29;19923;-95
2023/07/31 20:28:53;;;;;;;;;;;18.00;99.90;;;;;;4856644;29;19931;-94
2023/07/31 20:31:21;;;;;;;;;;;18.00;99.90;;;;;;4849887;29;19908;-95
2023/07/31 20:33:47;;;;;;;;;;;18.10;99.90;;;;;;4863291;29;19965;-95
2023/07/31 20:36:23;;;;;;;;;;;18.00;99.90;;;;;;4864587;29;20080;-94
2023/07/31 20:38:49;;;;;;;;;;;18.10;99.90;;;;;;4863943;29;19939;-95
2023/07/31 20:41:17;;;;;;;;;;;18.00;99.90;;;;;;4864185;29;19908;-94
2023/07/31 20:43:45;;;;;;;;;;;18.00;99.90;;;;;;4863112;29;19908;-94
2023/07/31 20:46:10;;;;;;;;;;;17.90;99.90;;;;;;4848217;29;19908;-93
2023/07/31 20:48:38;;;;;;;;;;;17.90;99.90;;;;;;4847536;29;20003;-92
2023/07/31 20:51:06;;;;;;;;;;;17.90;99.90;;;;;;4847993;29;20022;-93
2023/07/31 20:53:32;;;;;;;;;;;17.80;99.90;;;;;;4847710;29;19919;-93
2023/07/31 20:56:06;;;;;;;;;;;17.80;99.90;;;;;;4847699;29;19912;-92
2023/07/31 20:58:32;;;;;;;;;;;17.80;99.90;;;;;;4862893;29;19912;-94
2023/07/31 21:01:05;;;;;;;;;;;17.80;99.90;;;;;;4848079;29;20380;-94
2023/07/31 21:03:31;;;;;;;;;;;17.80;99.90;;;;;;4848170;29;19915;-95
2023/07/31 21:06:02;;;;;;;;;;;17.80;99.90;;;;;;4850672;29;19912;-95
2023/07/31 21:08:48;;;;;;;;;;;17.80;99.90;;;;;;4851196;29;19912;-96
2023/07/31 21:11:14;;;;;;;;;;;17.80;99.90;;;;;;4851371;29;19947;-95
2023/07/31 21:13:49;;;;;;;;;;;;;;;;;;;;;
2023/07/31 21:22:25;;;;;;;;;;;17.70;99.90;;;;;;4802745;29;19920;-92
2023/07/31 21:24:53;;;;;;;;;;;17.70;99.90;;;;;;4865245;29;19936;-91
2023/07/31 21:27:19;;;;;;;;;;;17.70;99.90;;;;;;4874676;29;19908;-90
2023/07/31 21:29:45;;;;;;;;;;;17.60;99.90;;;;;;4859097;29;19912;-91
2023/07/31 21:32:13;;;;;;;;;;;17.60;99.90;;;;;;4868817;29;19914;-91
2023/07/31 21:34:38;;;;;;;;;;;17.60;99.90;;;;;;4867592;29;19911;-89
2023/07/31 21:37:04;;;;;;;;;;;17.60;99.90;;;;;;4866325;29;19919;-91
2023/07/31 21:39:30;;;;;;;;;;;17.60;99.90;;;;;;4865778;29;19912;-91
2023/07/31 21:41:58;;;;;;;;;;;17.60;99.90;;;;;;4866107;29;20007;-92
2023/07/31 21:44:23;;;;;;;;;;;17.60;99.90;;;;;;4866160;29;19907;-91
2023/07/31 21:46:49;;;;;;;;;;;17.60;99.90;;;;;;4865900;29;19994;-91
2023/07/31 21:49:17;;;;;;;;;;;17.60;99.90;;;;;;4865636;29;20249;-92
2023/07/31 21:51:43;;;;;;;;;;;17.60;99.90;;;;;;4866174;29;19908;-90
2023/07/31 21:54:09;;;;;;;;;;;17.60;99.90;;;;;;4866197;29;20408;-92
2023/07/31 21:56:34;;;;;;;;;;;17.50;99.90;;;;;;4865200;29;20367;-91
2023/07/31 21:59:00;;;;;;;;;;;17.60;99.90;;;;;;4866205;29;19907;-91
2023/07/31 22:01:28;;;;;;;;;;;17.60;99.90;;;;;;4865596;29;19908;-91
2023/07/31 22:03:53;;;;;;;;;;;17.60;99.90;;;;;;4865380;29;19907;-91
2023/07/31 22:06:19;;;;;;;;;;;17.50;99.90;;;;;;4881113;29;19934;-90
2023/07/31 22:11:48;;;;;;;;;;;17.50;99.90;;;;;;4881606;29;19930;-90
2023/07/31 22:14:13;;;;;;;;;;;17.50;99.90;;;;;;4865599;29;20280;-90
2023/07/31 22:19:43;;;;;;;;;;;17.50;99.90;;;;;;4881852;29;19915;-90
2023/07/31 22:22:11;;;;;;;;;;;17.50;99.90;;;;;;4849955;29;19960;-91
2023/07/31 22:24:40;;;;;;;;;;;17.50;99.90;;;;;;4865313;29;19955;-91
2023/07/31 22:27:05;;;;;;;;;;;17.50;99.90;;;;;;4850317;29;19967;-92
2023/07/31 22:29:31;;;;;;;;;;;17.60;99.90;;;;;;4849413;29;19916;-91
2023/07/31 22:31:56;;;;;;;;;;;17.60;99.90;;;;;;4881052;29;20348;-91
2023/07/31 22:34:22;;;;;;;;;;;17.60;99.90;;;;;;4849431;29;20389;-91
2023/07/31 22:36:47;;;;;;;;;;;17.60;99.90;;;;;;4865267;29;19912;-91
2023/07/31 22:39:15;;;;;;;;;;;17.60;99.90;;;;;;4865301;29;20265;-92
2023/07/31 22:41:40;;;;;;;;;;;17.60;99.90;;;;;;4865296;29;19919;-91
2023/07/31 22:44:06;;;;;;;;;;;17.60;99.90;;;;;;4849511;29;19911;-90
2023/07/31 22:46:31;;;;;;;;;;;17.60;99.90;;;;;;4849519;29;19912;-90
2023/07/31 22:48:59;;;;;;;;;;;17.60;99.90;;;;;;4849309;29;19915;-90
2023/07/31 22:51:25;;;;;;;;;;;17.60;99.90;;;;;;4881524;29;19908;-91
2023/07/31 22:53:51;;;;;;;;;;;17.60;99.90;;;;;;4864478;29;19907;-91
2023/07/31 22:56:16;;;;;;;;;;;17.60;99.90;;;;;;4865005;29;20431;-91